sensor_id;sensor_type;location;lat;lon;timestamp;pressure;altitude;pressure_sealevel;temperature;humidity
29903;BME280;30288;50.514;9.678;2022-12-07T00:00:12;98702.19;;;1.56;100.00
29903;BME280;30288;50.514;9.678;2022-12-07T00:02:17;98699.69;;;1.56;100.00
29903;BME280;30288;50.514;9.678;2022-12-07T00:04:23;98694.75;;;1.60;100.00
29903;BME280;30288;50.514;9.678;2022-12-07T00:06:28;98695.59;;;1.62;100.00
29903;BME280;30288;50.514;9.678;2022-12-07T00:08:34;98686.50;;;1.64;100.00
29903;BME280;30288;50.514;9.678;2022-12-07T00:10:39;98689.81;;;1.66;100.00
29903;BME280;30288;50.514;9.678;2022-12-07T00:12:46;98680.72;;;1.67;100.00
29903;BME280;30288;50.514;9.678;2022-12-07T00:14:52;98681.53;;;1.64;100.00
29903;BME280;30288;50.514;9.678;2022-12-07T00:16:57;98680.75;;;1.68;100.00
29903;BME280;30288;50.514;9.678;2022-12-07T00:19:04;98683.22;;;1.68;100.00
29903;BME280;30288;50.514;9.678;2022-12-07T00:21:11;98677.44;;;1.69;100.00
29903;BME280;30288;50.514;9.678;2022-12-07T00:23:17;98679.09;;;1.72;100.00
29903;BME280;30288;50.514;9.678;2022-12-07T00:25:22;98675.00;;;1.79;100.00
29903;BME280;30288;50.514;9.678;2022-12-07T00:27:27;98673.38;;;1.82;100.00
29903;BME280;30288;50.514;9.678;2022-12-07T00:29:35;98665.97;;;1.85;100.00
29903;BME280;30288;50.514;9.678;2022-12-07T00:31:41;98666.81;;;1.89;100.00
29903;BME280;30288;50.514;9.678;2022-12-07T00:33:47;98670.09;;;1.91;100.00
29903;BME280;30288;50.514;9.678;2022-12-07T00:35:56;98661.84;;;1.92;100.00
29903;BME280;30288;50.514;9.678;2022-12-07T00:38:01;98663.50;;;1.93;100.00
29903;BME280;30288;50.514;9.678;2022-12-07T00:40:08;98661.03;;;1.93;100.00
29903;BME280;30288;50.514;9.678;2022-12-07T00:42:13;98657.72;;;1.92;100.00
29903;BME280;30288;50.514;9.678;2022-12-07T00:44:19;98650.28;;;1.94;100.00
29903;BME280;30288;50.514;9.678;2022-12-07T00:46:27;98648.63;;;1.96;100.00
29903;BME280;30288;50.514;9.678;2022-12-07T00:48:32;98646.16;;;1.97;100.00
29903;BME280;30288;50.514;9.678;2022-12-07T00:50:38;98647.81;;;2.01;100.00
29903;BME280;30288;50.514;9.678;2022-12-07T00:52:43;98648.66;;;2.02;100.00
29903;BME280;30288;50.514;9.678;2022-12-07T00:54:48;98646.97;;;2.01;100.00
29903;BME280;30288;50.514;9.678;2022-12-07T00:56:53;98635.41;;;2.03;100.00
29903;BME280;30288;50.514;9.678;2022-12-07T00:59:01;98632.13;;;2.04;100.00
29903;BME280;30288;50.514;9.678;2022-12-07T01:01:09;98635.41;;;2.03;100.00
29903;BME280;30288;50.514;9.678;2022-12-07T01:03:18;98635.41;;;2.03;100.00
29903;BME280;30288;50.514;9.678;2022-12-07T01:05:23;98633.75;;;2.05;100.00
29903;BME280;30288;50.514;9.678;2022-12-07T01:07:28;98632.94;;;2.06;100.00
29903;BME280;30288;50.514;9.678;2022-12-07T01:09:34;98628.81;;;2.09;100.00
29903;BME280;30288;50.514;9.678;2022-12-07T01:11:40;98625.50;;;2.09;100.00
29903;BME280;30288;50.514;9.678;2022-12-07T01:13:45;98620.53;;;2.09;100.00
29903;BME280;30288;50.514;9.678;2022-12-07T01:15:51;98618.88;;;2.09;100.00
29903;BME280;30288;50.514;9.678;2022-12-07T01:17:56;98629.66;;;2.11;100.00
29903;BME280;30288;50.514;9.678;2022-12-07T01:20:06;98627.97;;;2.10;100.00
29903;BME280;30288;50.514;9.678;2022-12-07T01:22:11;98632.94;;;2.10;100.00
29903;BME280;30288;50.514;9.678;2022-12-07T01:24:17;98619.69;;;2.10;100.00
29903;BME280;30288;50.514;9.678;2022-12-07T01:26:23;98621.38;;;2.14;100.00
29903;BME280;30288;50.514;9.678;2022-12-07T01:28:29;98618.09;;;2.13;100.00
29903;BME280;30288;50.514;9.678;2022-12-07T01:30:34;98619.72;;;2.13;100.00
29903;BME280;30288;50.514;9.678;2022-12-07T01:32:39;98622.19;;;2.10;100.00
29903;BME280;30288;50.514;9.678;2022-12-07T01:34:44;98632.13;;;2.10;100.00
29903;BME280;30288;50.514;9.678;2022-12-07T01:36:52;98639.56;;;2.10;100.00
29903;BME280;30288;50.514;9.678;2022-12-07T01:39:00;98637.94;;;2.13;100.00
29903;BME280;30288;50.514;9.678;2022-12-07T01:41:07;98635.44;;;2.12;100.00
29903;BME280;30288;50.514;9.678;2022-12-07T01:43:17;98631.31;;;2.11;100.00
29903;BME280;30288;50.514;9.678;2022-12-07T01:45:39;98630.47;;;2.15;100.00
29903;BME280;30288;50.514;9.678;2022-12-07T01:47:48;98633.84;;;2.23;100.00
29903;BME280;30288;50.514;9.678;2022-12-07T01:49:54;98630.50;;;2.24;100.00
29903;BME280;30288;50.514;9.678;2022-12-07T01:52:13;98622.22;;;2.19;100.00
29903;BME280;30288;50.514;9.678;2022-12-07T01:54:20;98625.53;;;2.21;100.00
29903;BME280;30288;50.514;9.678;2022-12-07T01:56:27;98622.25;;;2.22;100.00
29903;BME280;30288;50.514;9.678;2022-12-07T01:58:34;98620.56;;;2.21;100.00
29903;BME280;30288;50.514;9.678;2022-12-07T02:00:41;98632.19;;;2.28;100.00
29903;BME280;30288;50.514;9.678;2022-12-07T02:02:51;98619.75;;;2.25;100.00
29903;BME280;30288;50.514;9.678;2022-12-07T02:05:00;98613.97;;;2.26;100.00
29903;BME280;30288;50.514;9.678;2022-12-07T02:07:08;98613.16;;;2.27;100.00
29903;BME280;30288;50.514;9.678;2022-12-07T02:09:13;98612.31;;;2.25;100.00
29903;BME280;30288;50.514;9.678;2022-12-07T02:11:19;98618.94;;;2.23;100.00
29903;BME280;30288;50.514;9.678;2022-12-07T02:13:28;98609.81;;;2.24;100.00
29903;BME280;30288;50.514;9.678;2022-12-07T02:15:56;98614.78;;;2.25;100.00
29903;BME280;30288;50.514;9.678;2022-12-07T02:18:09;98604.03;;;2.23;100.00
29903;BME280;30288;50.514;9.678;2022-12-07T02:20:26;98604.84;;;2.25;100.00
29903;BME280;30288;50.514;9.678;2022-12-07T02:23:05;98609.03;;;2.32;100.00
29903;BME280;30288;50.514;9.678;2022-12-07T02:25:25;98602.41;;;2.34;100.00
29903;BME280;30288;50.514;9.678;2022-12-07T02:27:42;98604.91;;;2.33;100.00
29903;BME280;30288;50.514;9.678;2022-12-07T02:29:59;98599.13;;;2.41;100.00
29903;BME280;30288;50.514;9.678;2022-12-07T02:32:10;98594.13;;;2.38;100.00
29903;BME280;30288;50.514;9.678;2022-12-07T02:34:24;98597.44;;;2.39;100.00
29903;BME280;30288;50.514;9.678;2022-12-07T02:36:34;98597.44;;;2.37;100.00
29903;BME280;30288;50.514;9.678;2022-12-07T02:38:50;98599.09;;;2.38;100.00
29903;BME280;30288;50.514;9.678;2022-12-07T02:41:04;98600.75;;;2.39;100.00
29903;BME280;30288;50.514;9.678;2022-12-07T02:43:14;98610.69;;;2.39;100.00
29903;BME280;30288;50.514;9.678;2022-12-07T02:45:28;98603.25;;;2.42;100.00
29903;BME280;30288;50.514;9.678;2022-12-07T02:47:35;98604.91;;;2.48;100.00
29903;BME280;30288;50.514;9.678;2022-12-07T02:49:42;98607.41;;;2.52;100.00
29903;BME280;30288;50.514;9.678;2022-12-07T02:51:47;98606.59;;;2.58;100.00
29903;BME280;30288;50.514;9.678;2022-12-07T02:53:52;98600.81;;;2.63;100.00
29903;BME280;30288;50.514;9.678;2022-12-07T02:55:59;98595.84;;;2.70;100.00
29903;BME280;30288;50.514;9.678;2022-12-07T02:58:22;98594.19;;;2.69;100.00
29903;BME280;30288;50.514;9.678;2022-12-07T03:00:31;98600.00;;;2.74;100.00
29903;BME280;30288;50.514;9.678;2022-12-07T03:02:51;98587.53;;;2.77;100.00
29903;BME280;30288;50.514;9.678;2022-12-07T03:05:13;98590.84;;;2.76;100.00
29903;BME280;30288;50.514;9.678;2022-12-07T03:07:30;98587.56;;;2.83;100.00
29903;BME280;30288;50.514;9.678;2022-12-07T03:09:45;98589.22;;;2.84;100.00
29903;BME280;30288;50.514;9.678;2022-12-07T03:12:04;98604.13;;;2.81;100.00
29903;BME280;30288;50.514;9.678;2022-12-07T03:14:20;98595.84;;;2.82;100.00
29903;BME280;30288;50.514;9.678;2022-12-07T03:16:34;98595.88;;;2.85;100.00
29903;BME280;30288;50.514;9.678;2022-12-07T03:18:46;98590.88;;;2.82;100.00
29903;BME280;30288;50.514;9.678;2022-12-07T03:20:56;98595.03;;;2.80;100.00
29903;BME280;30288;50.514;9.678;2022-12-07T03:23:05;98592.53;;;2.83;100.00
29903;BME280;30288;50.514;9.678;2022-12-07T03:25:15;98594.19;;;2.84;100.00
29903;BME280;30288;50.514;9.678;2022-12-07T03:27:25;98588.38;;;2.86;100.00
29903;BME280;30288;50.514;9.678;2022-12-07T03:29:36;98583.41;;;2.86;100.00
29903;BME280;30288;50.514;9.678;2022-12-07T03:31:51;98583.41;;;2.83;100.00
29903;BME280;30288;50.514;9.678;2022-12-07T03:34:05;98586.72;;;2.81;100.00
29903;BME280;30288;50.514;9.678;2022-12-07T03:36:17;98579.28;;;2.87;100.00
29903;BME280;30288;50.514;9.678;2022-12-07T03:38:29;98579.28;;;2.87;100.00
29903;BME280;30288;50.514;9.678;2022-12-07T03:40:44;98575.97;;;2.85;100.00
29903;BME280;30288;50.514;9.678;2022-12-07T03:42:52;98571.81;;;2.84;100.00
29903;BME280;30288;50.514;9.678;2022-12-07T03:44:58;98575.94;;;2.82;100.00
29903;BME280;30288;50.514;9.678;2022-12-07T03:47:12;98567.66;;;2.83;100.00
29903;BME280;30288;50.514;9.678;2022-12-07T03:49:25;98575.97;;;2.88;100.00
29903;BME280;30288;50.514;9.678;2022-12-07T03:51:36;98569.31;;;2.87;100.00
29903;BME280;30288;50.514;9.678;2022-12-07T03:53:46;98560.19;;;2.86;100.00
29903;BME280;30288;50.514;9.678;2022-12-07T03:55:54;98575.13;;;2.84;100.00
29903;BME280;30288;50.514;9.678;2022-12-07T03:58:03;98568.50;;;2.82;100.00
29903;BME280;30288;50.514;9.678;2022-12-07T04:00:13;98568.50;;;2.77;100.00
29903;BME280;30288;50.514;9.678;2022-12-07T04:02:21;98562.69;;;2.80;100.00
29903;BME280;30288;50.514;9.678;2022-12-07T04:04:27;98568.50;;;2.77;100.00
29903;BME280;30288;50.514;9.678;2022-12-07T04:06:33;98572.66;;;2.80;100.00
29903;BME280;30288;50.514;9.678;2022-12-07T04:08:39;98572.63;;;2.74;100.00
29903;BME280;30288;50.514;9.678;2022-12-07T04:10:44;98577.59;;;2.74;100.00
29903;BME280;30288;50.514;9.678;2022-12-07T04:12:49;98570.97;;;2.76;100.00
29903;BME280;30288;50.514;9.678;2022-12-07T04:14:54;98573.47;;;2.74;100.00
29903;BME280;30288;50.514;9.678;2022-12-07T04:16:59;98570.97;;;2.73;100.00
29903;BME280;30288;50.514;9.678;2022-12-07T04:19:07;98568.47;;;2.71;100.00
29903;BME280;30288;50.514;9.678;2022-12-07T04:21:12;98562.69;;;2.74;100.00
29903;BME280;30288;50.514;9.678;2022-12-07T04:23:17;98554.41;;;2.75;100.00
29903;BME280;30288;50.514;9.678;2022-12-07T04:25:22;98560.22;;;2.80;100.00
29903;BME280;30288;50.514;9.678;2022-12-07T04:27:27;98561.03;;;2.82;100.00
29903;BME280;30288;50.514;9.678;2022-12-07T04:29:33;98562.69;;;2.86;100.00
29903;BME280;30288;50.514;9.678;2022-12-07T04:31:39;98562.69;;;2.83;100.00
29903;BME280;30288;50.514;9.678;2022-12-07T04:33:44;98562.69;;;2.83;100.00
29903;BME280;30288;50.514;9.678;2022-12-07T04:35:52;98564.34;;;2.78;100.00
29903;BME280;30288;50.514;9.678;2022-12-07T04:37:57;98565.16;;;2.86;100.00
29903;BME280;30288;50.514;9.678;2022-12-07T04:40:04;98567.66;;;2.86;100.00
29903;BME280;30288;50.514;9.678;2022-12-07T04:42:11;98565.19;;;2.83;100.00
29903;BME280;30288;50.514;9.678;2022-12-07T04:44:17;98562.69;;;2.86;100.00
29903;BME280;30288;50.514;9.678;2022-12-07T04:46:23;98554.41;;;2.87;100.00
29903;BME280;30288;50.514;9.678;2022-12-07T04:48:29;98556.06;;;2.88;100.00
29903;BME280;30288;50.514;9.678;2022-12-07T04:50:35;98549.44;;;2.87;100.00
29903;BME280;30288;50.514;9.678;2022-12-07T04:52:49;98553.56;;;2.79;100.00
29903;BME280;30288;50.514;9.678;2022-12-07T04:54:55;98542.78;;;2.83;100.00
29903;BME280;30288;50.514;9.678;2022-12-07T04:57:01;98539.47;;;2.87;100.00
29903;BME280;30288;50.514;9.678;2022-12-07T04:59:07;98546.94;;;2.85;100.00
29903;BME280;30288;50.514;9.678;2022-12-07T05:01:13;98556.06;;;2.85;100.00
29903;BME280;30288;50.514;9.678;2022-12-07T05:03:18;98550.25;;;2.90;100.00
29903;BME280;30288;50.514;9.678;2022-12-07T05:05:23;98552.75;;;2.93;100.00
29903;BME280;30288;50.514;9.678;2022-12-07T05:07:29;98556.06;;;2.94;100.00
29903;BME280;30288;50.514;9.678;2022-12-07T05:09:37;98555.22;;;2.98;100.00
29903;BME280;30288;50.514;9.678;2022-12-07T05:11:42;98551.09;;;2.97;100.00
29903;BME280;30288;50.514;9.678;2022-12-07T05:13:47;98551.09;;;2.94;100.00
29903;BME280;30288;50.514;9.678;2022-12-07T05:15:52;98554.41;;;2.93;100.00
29903;BME280;30288;50.514;9.678;2022-12-07T05:17:57;98554.41;;;2.93;100.00
29903;BME280;30288;50.514;9.678;2022-12-07T05:20:04;98550.25;;;2.98;100.00
29903;BME280;30288;50.514;9.678;2022-12-07T05:22:09;98556.06;;;2.94;100.00
29903;BME280;30288;50.514;9.678;2022-12-07T05:24:16;98551.91;;;2.91;100.00
29903;BME280;30288;50.514;9.678;2022-12-07T05:26:23;98545.28;;;2.90;100.00
29903;BME280;30288;50.514;9.678;2022-12-07T05:28:29;98552.72;;;2.95;100.00
29903;BME280;30288;50.514;9.678;2022-12-07T05:30:34;98542.78;;;2.98;100.00
29903;BME280;30288;50.514;9.678;2022-12-07T05:32:39;98546.09;;;2.95;100.00
29903;BME280;30288;50.514;9.678;2022-12-07T05:34:44;98546.13;;;2.94;100.00
29903;BME280;30288;50.514;9.678;2022-12-07T05:36:50;98544.47;;;2.93;100.00
29903;BME280;30288;50.514;9.678;2022-12-07T05:38:55;98544.47;;;2.93;100.00
29903;BME280;30288;50.514;9.678;2022-12-07T05:41:01;98542.78;;;2.92;100.00
29903;BME280;30288;50.514;9.678;2022-12-07T05:43:10;98549.44;;;2.93;100.00
29903;BME280;30288;50.514;9.678;2022-12-07T05:45:15;98545.28;;;2.90;100.00
29903;BME280;30288;50.514;9.678;2022-12-07T05:47:21;98545.28;;;2.93;100.00
29903;BME280;30288;50.514;9.678;2022-12-07T05:49:26;98544.47;;;2.93;100.00
29903;BME280;30288;50.514;9.678;2022-12-07T05:51:31;98549.41;;;2.96;100.00
29903;BME280;30288;50.514;9.678;2022-12-07T05:53:36;98550.25;;;2.96;100.00
29903;BME280;30288;50.514;9.678;2022-12-07T05:55:42;98549.41;;;2.96;100.00
29903;BME280;30288;50.514;9.678;2022-12-07T05:57:47;98544.47;;;2.94;100.00
29903;BME280;30288;50.514;9.678;2022-12-07T06:00:09;98555.22;;;2.95;100.00
29903;BME280;30288;50.514;9.678;2022-12-07T06:02:16;98546.13;;;2.94;100.00
29903;BME280;30288;50.514;9.678;2022-12-07T06:04:23;98551.09;;;2.94;100.00
29903;BME280;30288;50.514;9.678;2022-12-07T06:06:29;98546.13;;;2.94;100.00
29903;BME280;30288;50.514;9.678;2022-12-07T06:08:34;98554.41;;;3.02;100.00
29903;BME280;30288;50.514;9.678;2022-12-07T06:10:39;98546.09;;;3.09;100.00
29903;BME280;30288;50.514;9.678;2022-12-07T06:12:44;98542.78;;;3.18;100.00
29903;BME280;30288;50.514;9.678;2022-12-07T06:14:48;98550.22;;;3.16;100.00
29903;BME280;30288;50.514;9.678;2022-12-07T06:16:56;98550.25;;;3.13;100.00
29903;BME280;30288;50.514;9.678;2022-12-07T06:19:01;98549.41;;;3.08;100.00
29903;BME280;30288;50.514;9.678;2022-12-07T06:21:07;98551.06;;;3.12;100.00
29903;BME280;30288;50.514;9.678;2022-12-07T06:23:12;98551.91;;;3.08;100.00
29903;BME280;30288;50.514;9.678;2022-12-07T06:25:17;98542.78;;;3.13;100.00
29903;BME280;30288;50.514;9.678;2022-12-07T06:27:23;98543.59;;;3.11;100.00
29903;BME280;30288;50.514;9.678;2022-12-07T06:29:28;98551.06;;;3.17;100.00
29903;BME280;30288;50.514;9.678;2022-12-07T06:31:33;98556.88;;;3.09;100.00
29903;BME280;30288;50.514;9.678;2022-12-07T06:33:42;98556.03;;;3.09;100.00
29903;BME280;30288;50.514;9.678;2022-12-07T06:35:47;98557.72;;;3.07;100.00
29903;BME280;30288;50.514;9.678;2022-12-07T06:37:53;98552.72;;;3.12;100.00
29903;BME280;30288;50.514;9.678;2022-12-07T06:39:58;98554.41;;;3.08;100.00
29903;BME280;30288;50.514;9.678;2022-12-07T06:42:04;98559.34;;;3.17;100.00
29903;BME280;30288;50.514;9.678;2022-12-07T06:44:10;98555.22;;;3.13;100.00
29903;BME280;30288;50.514;9.678;2022-12-07T06:46:16;98558.53;;;3.14;100.00
29903;BME280;30288;50.514;9.678;2022-12-07T06:48:21;98552.72;;;3.13;100.00
29903;BME280;30288;50.514;9.678;2022-12-07T06:50:29;98556.03;;;3.15;100.00
29903;BME280;30288;50.514;9.678;2022-12-07T06:52:34;98556.84;;;3.14;100.00
29903;BME280;30288;50.514;9.678;2022-12-07T06:54:40;98551.88;;;3.26;100.00
29903;BME280;30288;50.514;9.678;2022-12-07T06:56:46;98559.31;;;3.23;100.00
29903;BME280;30288;50.514;9.678;2022-12-07T06:58:51;98552.72;;;3.22;100.00
29903;BME280;30288;50.514;9.678;2022-12-07T07:00:56;98559.31;;;3.23;100.00
29903;BME280;30288;50.514;9.678;2022-12-07T07:03:01;98556.84;;;3.26;100.00
29903;BME280;30288;50.514;9.678;2022-12-07T07:05:07;98558.53;;;3.21;100.00
29903;BME280;30288;50.514;9.678;2022-12-07T07:07:15;98556.84;;;3.20;100.00
29903;BME280;30288;50.514;9.678;2022-12-07T07:09:20;98553.56;;;3.07;100.00
29903;BME280;30288;50.514;9.678;2022-12-07T07:11:25;98557.72;;;2.98;100.00
29903;BME280;30288;50.514;9.678;2022-12-07T07:13:30;98560.19;;;2.90;100.00
29903;BME280;30288;50.514;9.678;2022-12-07T07:15:37;98569.31;;;2.78;100.00
29903;BME280;30288;50.514;9.678;2022-12-07T07:17:43;98564.34;;;2.75;100.00
29903;BME280;30288;50.514;9.678;2022-12-07T07:19:49;98561.88;;;2.66;100.00
29903;BME280;30288;50.514;9.678;2022-12-07T07:21:54;98572.63;;;2.60;100.00
29903;BME280;30288;50.514;9.678;2022-12-07T07:24:02;98567.63;;;2.52;100.00
29903;BME280;30288;50.514;9.678;2022-12-07T07:26:07;98574.25;;;2.47;100.00
29903;BME280;30288;50.514;9.678;2022-12-07T07:28:12;98569.28;;;2.44;100.00
29903;BME280;30288;50.514;9.678;2022-12-07T07:30:17;98570.94;;;2.48;100.00
29903;BME280;30288;50.514;9.678;2022-12-07T07:32:23;98576.75;;;2.52;100.00
29903;BME280;30288;50.514;9.678;2022-12-07T07:34:28;98576.75;;;2.53;100.00
29903;BME280;30288;50.514;9.678;2022-12-07T07:36:33;98573.44;;;2.51;100.00
29903;BME280;30288;50.514;9.678;2022-12-07T07:38:38;98574.25;;;2.44;100.00
29903;BME280;30288;50.514;9.678;2022-12-07T07:40:46;98570.09;;;2.43;100.00
29903;BME280;30288;50.514;9.678;2022-12-07T07:42:53;98580.88;;;2.39;100.00
29903;BME280;30288;50.514;9.678;2022-12-07T07:44:58;98583.34;;;2.36;100.00
29903;BME280;30288;50.514;9.678;2022-12-07T07:47:04;98587.47;;;2.34;100.00
29903;BME280;30288;50.514;9.678;2022-12-07T07:49:09;98582.50;;;2.30;100.00
29903;BME280;30288;50.514;9.678;2022-12-07T07:51:14;98592.47;;;2.31;100.00
29903;BME280;30288;50.514;9.678;2022-12-07T07:53:19;98584.19;;;2.32;100.00
29903;BME280;30288;50.514;9.678;2022-12-07T07:55:24;98588.31;;;2.35;100.00
29903;BME280;30288;50.514;9.678;2022-12-07T07:57:32;98595.78;;;2.36;100.00
29903;BME280;30288;50.514;9.678;2022-12-07T07:59:37;98592.47;;;2.37;100.00
29903;BME280;30288;50.514;9.678;2022-12-07T08:01:42;98590.84;;;2.42;100.00
29903;BME280;30288;50.514;9.678;2022-12-07T08:03:48;98595.78;;;2.48;100.00
29903;BME280;30288;50.514;9.678;2022-12-07T08:05:53;98597.47;;;2.55;100.00
29903;BME280;30288;50.514;9.678;2022-12-07T08:07:58;98595.81;;;2.57;100.00
29903;BME280;30288;50.514;9.678;2022-12-07T08:10:05;98602.47;;;2.64;100.00
29903;BME280;30288;50.514;9.678;2022-12-07T08:12:11;98597.50;;;2.74;100.00
29903;BME280;30288;50.514;9.678;2022-12-07T08:14:19;98598.31;;;2.77;100.00
29903;BME280;30288;50.514;9.678;2022-12-07T08:16:24;98602.47;;;2.86;100.00
29903;BME280;30288;50.514;9.678;2022-12-07T08:18:29;98598.31;;;2.86;100.00
29903;BME280;30288;50.514;9.678;2022-12-07T08:20:35;98595.84;;;2.88;100.00
29903;BME280;30288;50.514;9.678;2022-12-07T08:22:41;98596.69;;;2.97;100.00
29903;BME280;30288;50.514;9.678;2022-12-07T08:24:46;98587.56;;;2.98;100.00
29903;BME280;30288;50.514;9.678;2022-12-07T08:26:51;98572.66;;;3.04;100.00
29903;BME280;30288;50.514;9.678;2022-12-07T08:28:57;98587.56;;;3.13;100.00
29903;BME280;30288;50.514;9.678;2022-12-07T08:31:08;98581.75;;;3.26;100.00
29903;BME280;30288;50.514;9.678;2022-12-07T08:33:15;98590.00;;;3.34;100.00
29903;BME280;30288;50.514;9.678;2022-12-07T08:35:20;98590.03;;;3.37;100.00
29903;BME280;30288;50.514;9.678;2022-12-07T08:37:25;98585.06;;;3.37;100.00
29903;BME280;30288;50.514;9.678;2022-12-07T08:39:30;98595.81;;;3.39;100.00
29903;BME280;30288;50.514;9.678;2022-12-07T08:41:35;98590.81;;;3.42;100.00
29903;BME280;30288;50.514;9.678;2022-12-07T08:43:40;98589.16;;;3.44;100.00
29903;BME280;30288;50.514;9.678;2022-12-07T08:45:47;98590.84;;;3.51;100.00
29903;BME280;30288;50.514;9.678;2022-12-07T08:48:00;98589.13;;;3.57;100.00
29903;BME280;30288;50.514;9.678;2022-12-07T08:50:08;98586.63;;;3.57;100.00
29903;BME280;30288;50.514;9.678;2022-12-07T08:52:14;98591.63;;;3.52;100.00
29903;BME280;30288;50.514;9.678;2022-12-07T08:54:20;98591.63;;;3.52;100.00
29903;BME280;30288;50.514;9.678;2022-12-07T08:56:25;98599.09;;;3.53;100.00
29903;BME280;30288;50.514;9.678;2022-12-07T08:58:31;98595.78;;;3.55;100.00
29903;BME280;30288;50.514;9.678;2022-12-07T09:00:37;98594.13;;;3.53;100.00
29903;BME280;30288;50.514;9.678;2022-12-07T09:02:42;98599.09;;;3.57;100.00
29903;BME280;30288;50.514;9.678;2022-12-07T09:04:50;98600.75;;;3.64;100.00
29903;BME280;30288;50.514;9.678;2022-12-07T09:06:55;98598.25;;;3.74;100.00
29903;BME280;30288;50.514;9.678;2022-12-07T09:09:02;98599.00;;;3.87;100.00
29903;BME280;30288;50.514;9.678;2022-12-07T09:11:08;98591.53;;;3.90;100.00
29903;BME280;30288;50.514;9.678;2022-12-07T09:13:13;98596.50;;;3.90;100.00
29903;BME280;30288;50.514;9.678;2022-12-07T09:15:18;98590.66;;;4.03;100.00
29903;BME280;30288;50.514;9.678;2022-12-07T09:17:23;98597.28;;;4.07;100.00
29903;BME280;30288;50.514;9.678;2022-12-07T09:19:28;98598.03;;;4.24;100.00
29903;BME280;30288;50.514;9.678;2022-12-07T09:21:36;98603.88;;;4.17;100.00
29903;BME280;30288;50.514;9.678;2022-12-07T09:23:41;98601.34;;;4.26;100.00
29903;BME280;30288;50.514;9.678;2022-12-07T09:25:47;98607.91;;;4.38;100.00
29903;BME280;30288;50.514;9.678;2022-12-07T09:27:56;98605.25;;;4.70;100.00
29903;BME280;30288;50.514;9.678;2022-12-07T09:30:02;98601.94;;;4.68;100.00
29903;BME280;30288;50.514;9.678;2022-12-07T09:32:07;98599.44;;;4.69;100.00
29903;BME280;30288;50.514;9.678;2022-12-07T09:34:13;98605.19;;;4.79;100.00
29903;BME280;30288;50.514;9.678;2022-12-07T09:36:18;98603.50;;;4.81;100.00
29903;BME280;30288;50.514;9.678;2022-12-07T09:38:26;98603.47;;;4.87;100.00
29903;BME280;30288;50.514;9.678;2022-12-07T09:40:33;98596.72;;;4.98;100.00
29903;BME280;30288;50.514;9.678;2022-12-07T09:42:43;98599.19;;;5.03;100.00
29903;BME280;30288;50.514;9.678;2022-12-07T09:44:48;98595.94;;;4.93;100.00
29903;BME280;30288;50.514;9.678;2022-12-07T09:46:54;98592.69;;;4.82;100.00
29903;BME280;30288;50.514;9.678;2022-12-07T09:48:59;98590.22;;;4.79;100.00
29903;BME280;30288;50.514;9.678;2022-12-07T09:51:16;98598.56;;;4.75;100.00
29903;BME280;30288;50.514;9.678;2022-12-07T09:53:32;98598.66;;;4.57;100.00
29903;BME280;30288;50.514;9.678;2022-12-07T09:55:39;98597.03;;;4.53;100.00
29903;BME280;30288;50.514;9.678;2022-12-07T09:57:46;98594.59;;;4.47;100.00
29903;BME280;30288;50.514;9.678;2022-12-07T09:59:52;98582.16;;;4.40;100.00
29903;BME280;30288;50.514;9.678;2022-12-07T10:02:34;98578.91;;;4.26;100.00
29903;BME280;30288;50.514;9.678;2022-12-07T10:04:40;98577.28;;;4.22;100.00
29903;BME280;30288;50.514;9.678;2022-12-07T10:06:45;98575.53;;;4.33;100.00
29903;BME280;30288;50.514;9.678;2022-12-07T10:08:53;98583.78;;;4.45;100.00
29903;BME280;30288;50.514;9.678;2022-12-07T10:10:58;98576.22;;;4.60;100.00
29903;BME280;30288;50.514;9.678;2022-12-07T10:13:08;98565.31;;;4.73;100.00
29903;BME280;30288;50.514;9.678;2022-12-07T10:15:13;98578.47;;;4.93;100.00
29903;BME280;30288;50.514;9.678;2022-12-07T10:17:36;98561.63;;;5.16;100.00
29903;BME280;30288;50.514;9.678;2022-12-07T10:19:43;98564.69;;;5.43;100.00
29903;BME280;30288;50.514;9.678;2022-12-07T10:22:12;98564.44;;;5.65;100.00
29903;BME280;30288;50.514;9.678;2022-12-07T10:24:17;98570.06;;;5.89;100.00
29903;BME280;30288;50.514;9.678;2022-12-07T10:26:31;98568.94;;;6.12;100.00
29903;BME280;30288;50.514;9.678;2022-12-07T10:28:36;98564.78;;;6.08;100.00
29903;BME280;30288;50.514;9.678;2022-12-07T10:30:54;98567.50;;;5.92;100.00
29903;BME280;30288;50.514;9.678;2022-12-07T10:33:15;98569.22;;;5.88;100.00
29903;BME280;30288;50.514;9.678;2022-12-07T10:35:32;98567.66;;;5.75;100.00
29903;BME280;30288;50.514;9.678;2022-12-07T10:37:41;98562.00;;;5.62;100.00
29903;BME280;30288;50.514;9.678;2022-12-07T10:39:49;98561.06;;;5.71;100.00
29903;BME280;30288;50.514;9.678;2022-12-07T10:41:56;98568.00;;;5.45;100.00
29903;BME280;30288;50.514;9.678;2022-12-07T10:44:02;98566.34;;;5.44;100.00
29903;BME280;30288;50.514;9.678;2022-12-07T10:49:10;98556.09;;;5.68;100.00
29903;BME280;30288;50.514;9.678;2022-12-07T10:51:30;98556.31;;;5.47;100.00
29903;BME280;30288;50.514;9.678;2022-12-07T10:53:49;98551.28;;;5.53;100.00
29903;BME280;30288;50.514;9.678;2022-12-07T10:56:24;98555.22;;;5.70;100.00
29903;BME280;30288;50.514;9.678;2022-12-07T10:58:52;98544.22;;;5.85;100.00
29903;BME280;30288;50.514;9.678;2022-12-07T11:01:10;98552.47;;;5.96;100.00
29903;BME280;30288;50.514;9.678;2022-12-07T11:03:35;98549.19;;;5.91;100.00
29903;BME280;30288;50.514;9.678;2022-12-07T11:05:52;98541.50;;;6.08;100.00
29903;BME280;30288;50.514;9.678;2022-12-07T11:08:08;98549.06;;;6.03;100.00
29903;BME280;30288;50.514;9.678;2022-12-07T11:10:21;98541.63;;;5.97;100.00
29903;BME280;30288;50.514;9.678;2022-12-07T11:12:44;98537.59;;;5.87;100.00
29903;BME280;30288;50.514;9.678;2022-12-07T11:14:59;98537.63;;;5.81;100.00
29903;BME280;30288;50.514;9.678;2022-12-07T11:17:09;98540.06;;;5.86;100.00
29903;BME280;30288;50.514;9.678;2022-12-07T11:19:40;98532.72;;;5.72;100.00
29903;BME280;30288;50.514;9.678;2022-12-07T11:21:58;98536.19;;;5.62;100.00